createdAt,value
2018-07-23T00:00:12.971Z,86.33
2018-07-23T00:01:21.834Z,86.52
2018-07-23T00:02:30.699Z,86.24
2018-07-23T00:03:39.560Z,86.14
2018-07-23T00:04:48.421Z,85.75
2018-07-23T00:05:57.284Z,85.66
2018-07-23T00:07:06.246Z,86.33
2018-07-23T00:08:15.110Z,86.62
2018-07-23T00:09:23.974Z,85.95
2018-07-23T00:10:33.113Z,86.62
2018-07-23T00:11:41.977Z,86.57
2018-07-23T00:12:50.838Z,86.52
2018-07-23T00:13:59.700Z,85.85
2018-07-23T00:15:08.562Z,85.37
2018-07-23T00:16:17.425Z,85.85
2018-07-23T00:17:26.290Z,85.66
2018-07-23T00:18:35.510Z,85.95
2018-07-23T00:19:44.371Z,84.99
2018-07-23T00:20:53.507Z,84.99
2018-07-23T00:22:02.369Z,84.12
2018-07-23T00:23:11.231Z,84.22
2018-07-23T00:24:20.373Z,83.93
2018-07-23T00:25:29.237Z,84.51
2018-07-23T00:26:38.102Z,83.54
2018-07-23T00:27:46.965Z,83.54
2018-07-23T00:28:55.832Z,83.64
2018-07-23T00:30:04.973Z,83.84
2018-07-23T00:31:14.112Z,83.74
2018-07-23T00:32:22.973Z,83.84
2018-07-23T00:33:31.844Z,84.22
2018-07-23T00:34:40.985Z,82.97
2018-07-23T00:35:50.197Z,83.64
2018-07-23T00:36:59.332Z,82.97
2018-07-23T00:38:08.194Z,83.45
2018-07-23T00:39:17.055Z,84.41
2018-07-23T00:40:25.918Z,83.26
2018-07-23T00:41:34.881Z,83.54
2018-07-23T00:42:43.741Z,83.26
2018-07-23T00:43:52.600Z,83.45
2018-07-23T00:45:01.460Z,82.97
2018-07-23T00:46:10.325Z,83.07
2018-07-23T00:47:19.538Z,83.12
2018-07-23T00:48:28.400Z,82.64
2018-07-23T00:49:37.261Z,82.35
2018-07-23T00:50:46.403Z,82.84
2018-07-23T00:51:55.262Z,81.68
2018-07-23T00:53:04.271Z,81.78
2018-07-23T00:54:13.139Z,81.4
2018-07-23T00:55:21.997Z,81.49
2018-07-23T00:56:30.857Z,80.73
2018-07-23T00:57:40.003Z,80.82
2018-07-23T00:58:48.858Z,80.34
2018-07-23T00:59:57.719Z,80.43
2018-07-23T01:01:06.858Z,80.43
2018-07-23T01:02:15.718Z,80.43
2018-07-23T01:03:24.582Z,79.86
2018-07-23T01:04:33.593Z,79.76
2018-07-23T01:05:42.453Z,79.76
2018-07-23T01:06:51.316Z,79.47
2018-07-23T01:08:00.179Z,79.19
2018-07-23T01:09:09.041Z,79.28
2018-07-23T01:10:18.255Z,79.19
2018-07-23T01:11:27.118Z,78.9
2018-07-23T01:12:35.980Z,78.99
2018-07-23T01:13:44.853Z,78.42
2018-07-23T01:14:53.705Z,77.84
2018-07-23T01:16:02.998Z,77.94
2018-07-23T01:17:11.861Z,77.36
2018-07-23T01:18:20.719Z,76.98
2018-07-23T01:19:29.582Z,77.08
2018-07-23T01:20:38.447Z,76.69
2018-07-23T01:21:47.657Z,76.17
2018-07-23T01:22:56.520Z,76.07
2018-07-23T01:24:05.378Z,75.89
2018-07-23T01:25:14.239Z,75.6
2018-07-23T01:26:23.098Z,75.6
2018-07-23T01:27:32.410Z,75.4
2018-07-23T01:28:41.273Z,75.31
2018-07-23T01:29:50.139Z,75.4
2018-07-23T01:30:59.001Z,75.6
2018-07-23T01:32:07.865Z,75.21
2018-07-23T01:33:17.001Z,75.12
2018-07-23T01:34:25.863Z,74.83
2018-07-23T01:35:34.733Z,75.31
2018-07-23T01:36:43.597Z,75.6
2018-07-23T01:37:52.455Z,75.6
2018-07-23T01:39:01.599Z,75.31
2018-07-23T01:40:10.462Z,75.4
2018-07-23T01:41:19.322Z,75.4
2018-07-23T01:42:28.185Z,75.31
2018-07-23T01:43:37.325Z,75.79
2018-07-23T01:44:46.189Z,75.79
2018-07-23T01:45:55.331Z,75.7
2018-07-23T01:47:04.194Z,75.6
2018-07-23T01:48:13.057Z,76.07
2018-07-23T01:49:21.920Z,75.5
2018-07-23T01:50:30.932Z,75.5
2018-07-23T01:51:39.791Z,76.07
2018-07-23T01:52:48.656Z,75.6
2018-07-23T01:53:57.514Z,75.79
2018-07-23T01:55:06.658Z,75.6
2018-07-23T01:56:15.618Z,75.4
2018-07-23T01:57:24.759Z,75.65
2018-07-23T01:58:33.617Z,75.65
2018-07-23T01:59:42.480Z,75.65
2018-07-23T02:00:51.342Z,75.37
2018-07-23T02:02:00.359Z,75.37
2018-07-23T02:03:09.500Z,75.27
2018-07-23T02:04:18.364Z,75.37
2018-07-23T02:05:27.225Z,75.37
2018-07-23T02:06:36.362Z,75.37
2018-07-23T02:07:45.373Z,75.27
2018-07-23T02:08:54.234Z,75.46
2018-07-23T02:10:03.097Z,75.56
2018-07-23T02:11:11.957Z,75.56
2018-07-23T02:12:20.819Z,75.37
2018-07-23T02:13:29.684Z,75.08
2018-07-23T02:14:38.543Z,75.65
2018-07-23T02:15:47.402Z,75.18
2018-07-23T02:16:56.819Z,75.27
2018-07-23T02:18:05.699Z,75.46
2018-07-23T02:19:14.546Z,75.18
2018-07-23T02:20:23.408Z,74.69
2018-07-23T02:21:32.275Z,74.89
2018-07-23T02:22:41.133Z,74.89
2018-07-23T02:23:49.993Z,74.89
2018-07-23T02:24:59.007Z,74.69
2018-07-23T02:26:08.143Z,74.79
2018-07-23T02:27:17.006Z,74.6
2018-07-23T02:28:25.865Z,74.89
2018-07-23T02:29:35.008Z,74.31
2018-07-23T02:30:44.143Z,74.41
2018-07-23T02:31:53.284Z,74.69
2018-07-23T02:33:02.146Z,74.89
2018-07-23T02:34:11.012Z,74.12
2018-07-23T02:35:20.157Z,74.31
2018-07-23T02:36:29.121Z,73.83
2018-07-23T02:37:37.989Z,74.02
2018-07-23T02:38:47.128Z,73.55
2018-07-23T02:39:56.540Z,73.83
2018-07-23T02:41:05.687Z,73.22
2018-07-23T02:42:15.175Z,73.16
2018-07-23T02:43:24.036Z,72.68
2018-07-23T02:44:32.897Z,73.32
2018-07-23T02:45:41.756Z,73.07
2018-07-23T02:46:50.622Z,72.94
2018-07-23T02:47:59.641Z,72.74
2018-07-23T02:49:08.778Z,72.64
2018-07-23T02:50:17.643Z,72.64
2018-07-23T02:51:26.789Z,72.84
2018-07-23T02:52:35.927Z,72.45
2018-07-23T02:53:44.787Z,72.17
2018-07-23T02:54:53.947Z,72.84
2018-07-23T02:56:03.092Z,72.55
2018-07-23T02:57:12.509Z,72.17
2018-07-23T02:58:21.373Z,73.13
2018-07-23T02:59:30.423Z,72.27
2018-07-23T03:00:39.247Z,72.27
2018-07-23T03:02:20.163Z,72.84
2018-07-23T03:03:29.584Z,72.74
2018-07-23T03:04:38.825Z,72.84
2018-07-23T03:05:47.686Z,72.74
2018-07-23T03:06:56.822Z,72.45
2018-07-23T03:08:06.254Z,73.13
2018-07-23T03:09:15.118Z,72.55
2018-07-23T03:10:24.026Z,72.36
2018-07-23T03:11:32.889Z,72.45
2018-07-23T03:12:42.034Z,71.88
2018-07-23T03:13:51.168Z,72.45
2018-07-23T03:15:00.050Z,72.45
2018-07-23T03:16:09.194Z,72.07
2018-07-23T03:17:18.337Z,72.07
2018-07-23T03:18:28.027Z,72.45
2018-07-23T03:19:36.893Z,72.07
2018-07-23T03:20:46.032Z,71.69
2018-07-23T03:21:55.665Z,71.88
2018-07-23T03:23:04.331Z,71.5
2018-07-23T03:24:13.481Z,71.59
2018-07-23T03:25:22.900Z,71.5
2018-07-23T03:26:32.040Z,71.69
2018-07-23T03:27:41.331Z,71.78
2018-07-23T03:28:51.046Z,71.88
2018-07-23T03:29:59.909Z,71.78
2018-07-23T03:31:09.106Z,71.5
2018-07-23T03:32:18.536Z,71.5
2018-07-23T03:33:27.404Z,71.31
2018-07-23T03:34:36.262Z,71.56
2018-07-23T03:35:45.128Z,71.78
2018-07-23T03:36:54.544Z,71.59
2018-07-23T03:38:03.408Z,71.31
2018-07-23T03:39:12.369Z,71.21
2018-07-23T03:40:21.793Z,70.41
2018-07-23T03:41:30.655Z,70.35
2018-07-23T03:42:39.516Z,70.44
2018-07-23T03:43:48.376Z,70.6
2018-07-23T03:44:57.236Z,70.35
2018-07-23T03:46:06.374Z,70.54
2018-07-23T03:47:15.236Z,70.54
2018-07-23T03:48:24.095Z,70.92
2018-07-23T03:49:33.233Z,70.83
2018-07-23T03:50:42.723Z,71.02
2018-07-23T03:51:51.584Z,70.25
2018-07-23T03:53:00.449Z,70.92
2018-07-23T03:54:09.584Z,70.31
2018-07-23T03:55:18.444Z,70.31
2018-07-23T03:56:27.306Z,70.06
2018-07-23T03:57:36.165Z,69.96
2018-07-23T03:58:45.027Z,69.87
2018-07-23T03:59:53.893Z,70.15
2018-07-23T04:01:02.750Z,70.15
2018-07-23T04:02:11.764Z,70.25
2018-07-23T04:03:20.933Z,69.48
2018-07-23T04:04:29.760Z,69.68
2018-07-23T04:05:38.897Z,69.77
2018-07-23T04:06:47.761Z,69.58
2018-07-23T04:07:57.326Z,69.48
2018-07-23T04:09:06.189Z,68.52
2018-07-23T04:10:15.050Z,68.33
2018-07-23T04:11:23.909Z,67.38
2018-07-23T04:12:32.787Z,66.51
2018-07-23T04:13:41.797Z,66.32
2018-07-23T04:14:50.656Z,65.55
2018-07-23T04:15:59.524Z,65.84
2018-07-23T04:17:08.661Z,66.03
2018-07-23T04:18:17.521Z,66.13
2018-07-23T04:19:26.733Z,65.46
2018-07-23T04:20:35.597Z,65.84
2018-07-23T04:21:44.458Z,65.55
2018-07-23T04:22:53.319Z,65.55
2018-07-23T04:24:02.456Z,65.46
2018-07-23T04:25:11.318Z,65.08
2018-07-23T04:26:20.456Z,64.59
2018-07-23T04:27:29.318Z,63.92
2018-07-23T04:28:38.178Z,63.92
2018-07-23T04:29:47.038Z,63.92
2018-07-23T04:30:55.902Z,63.73
2018-07-23T04:32:04.763Z,63.92
2018-07-23T04:33:13.624Z,63.83
2018-07-23T04:34:22.484Z,63.35
2018-07-23T04:35:31.343Z,63.35
2018-07-23T04:36:40.206Z,63.54
2018-07-23T04:37:49.102Z,63.54
2018-07-23T04:38:58.245Z,63.83
2018-07-23T04:40:07.106Z,63.83
2018-07-23T04:41:15.968Z,63.64
2018-07-23T04:42:24.857Z,64.15
2018-07-23T04:43:33.692Z,63.38
2018-07-23T04:44:42.827Z,63.38
2018-07-23T04:45:51.691Z,64.05
2018-07-23T04:47:00.552Z,63.38
2018-07-23T04:48:09.791Z,63.96
2018-07-23T04:49:18.706Z,63.67
2018-07-23T04:50:27.792Z,63.76
2018-07-23T04:51:37.298Z,63.86
2018-07-23T04:52:46.435Z,63.38
2018-07-23T04:53:55.571Z,63.38
2018-07-23T04:55:04.432Z,63.67
2018-07-23T04:56:13.296Z,62.9
2018-07-23T04:57:22.160Z,63.19
2018-07-23T04:58:31.019Z,63.09
2018-07-23T04:59:39.880Z,62.81
2018-07-23T05:00:48.745Z,62.71
2018-07-23T05:01:57.883Z,62.71
2018-07-23T05:03:06.745Z,62.52
2018-07-23T05:04:15.608Z,62.71
2018-07-23T05:05:24.468Z,62.74
2018-07-23T05:06:33.332Z,63
2018-07-23T05:07:42.474Z,63.12
2018-07-23T05:08:51.607Z,63.09
2018-07-23T05:10:00.468Z,63.32
2018-07-23T05:11:09.335Z,62.74
2018-07-23T05:12:18.474Z,62.84
2018-07-23T05:13:27.336Z,62.74
2018-07-23T05:14:36.201Z,62.45
2018-07-23T05:15:45.061Z,62.07
2018-07-23T05:16:54.274Z,62.45
2018-07-23T05:18:03.414Z,62.16
2018-07-23T05:19:12.274Z,62.07
2018-07-23T05:20:21.137Z,62.45
2018-07-23T05:21:29.997Z,62.26
2018-07-23T05:22:39.214Z,61.59
2018-07-23T05:23:48.120Z,62.36
2018-07-23T05:24:58.229Z,61.98
2018-07-23T05:26:07.099Z,62.77
2018-07-23T05:27:15.956Z,63.35
2018-07-23T05:28:24.819Z,64.98
2018-07-23T05:29:33.682Z,64.12
2018-07-23T05:30:42.546Z,63.73
2018-07-23T05:31:51.498Z,63.54
2018-07-23T05:33:00.545Z,62.96
2018-07-23T05:34:09.785Z,62.68
2018-07-23T05:35:18.648Z,63.64
2018-07-23T05:36:27.514Z,64.12
2018-07-23T05:37:36.374Z,63.73
2018-07-23T05:38:45.237Z,63.64
2018-07-23T05:39:54.529Z,64.4
2018-07-23T05:41:03.400Z,64.02
2018-07-23T05:42:12.538Z,64.59
2018-07-23T05:43:21.399Z,64.12
2018-07-23T05:44:30.267Z,64.12
2018-07-23T05:45:39.279Z,64.79
2018-07-23T05:46:48.418Z,63.92
2018-07-23T05:47:57.282Z,64.4
2018-07-23T05:49:06.142Z,65.46
2018-07-23T05:50:15.004Z,65.46
2018-07-23T05:51:24.143Z,65.08
2018-07-23T05:52:33.005Z,65.59
2018-07-23T05:53:41.868Z,64.63
2018-07-23T05:54:50.730Z,67.32
2018-07-23T05:55:59.867Z,65.59
2018-07-23T05:57:08.885Z,64.43
2018-07-23T05:58:17.747Z,64.34
2018-07-23T05:59:26.610Z,64.05
2018-07-23T06:00:35.475Z,65.3
2018-07-23T06:01:44.895Z,65.11
2018-07-23T06:02:54.036Z,64.63
2018-07-23T06:04:03.186Z,65.01
2018-07-23T06:05:12.050Z,64.92
2018-07-23T06:06:20.942Z,65.97
2018-07-23T06:07:29.781Z,64.82
2018-07-23T06:08:38.644Z,64.53
2018-07-23T06:09:47.508Z,65.49
2018-07-23T06:10:56.373Z,65.11
2018-07-23T06:12:05.239Z,64.72
2018-07-23T06:13:14.110Z,64.82
2018-07-23T06:14:23.313Z,65.11
2018-07-23T06:15:32.176Z,66.36
2018-07-23T06:16:41.313Z,67.32
2018-07-23T06:17:50.176Z,65.01
2018-07-23T06:18:59.594Z,65.49
2018-07-23T06:20:08.453Z,64.72
2018-07-23T06:21:17.319Z,64.53
2018-07-23T06:22:26.184Z,64.53
2018-07-23T06:23:35.328Z,64.34
2018-07-23T06:24:44.193Z,64.53
2018-07-23T06:25:53.481Z,65.01
2018-07-23T06:27:02.347Z,64.34
2018-07-23T06:28:11.210Z,64.47
2018-07-23T06:29:20.073Z,64.34
2018-07-23T06:30:29.319Z,64.37
2018-07-23T06:31:38.182Z,64.66
2018-07-23T06:32:47.049Z,65.91
2018-07-23T06:33:56.231Z,65.05
2018-07-23T06:35:05.615Z,65.14
2018-07-23T06:36:14.763Z,65.14
2018-07-23T06:37:23.725Z,65.33
2018-07-23T06:38:32.905Z,64.76
2018-07-23T06:39:41.770Z,65.14
2018-07-23T06:40:50.636Z,64.37
2018-07-23T06:41:59.499Z,64.95
2018-07-23T06:43:08.359Z,65.53
2018-07-23T06:44:17.225Z,65.05
2018-07-23T06:45:26.089Z,65.62
2018-07-23T06:46:35.246Z,65.62
2018-07-23T06:47:44.096Z,66.68
2018-07-23T06:48:53.062Z,66.81
2018-07-23T06:50:02.200Z,67.48
2018-07-23T06:51:11.063Z,67.1
2018-07-23T06:52:19.928Z,67.38
2018-07-23T06:53:28.789Z,66.91
2018-07-23T06:54:37.653Z,67.86
2018-07-23T06:55:46.515Z,67.58
2018-07-23T06:56:55.379Z,67.48
2018-07-23T06:58:04.515Z,67.77
2018-07-23T06:59:13.378Z,68.25
2018-07-23T07:00:22.252Z,68.83
2018-07-23T07:01:31.396Z,69.12
2018-07-23T07:02:40.263Z,68.92
2018-07-23T07:03:49.402Z,68.54
2018-07-23T07:04:58.268Z,68.92
2018-07-23T07:06:07.135Z,69.5
2018-07-23T07:07:16.001Z,68.92
2018-07-23T07:08:24.866Z,68.73
2018-07-23T07:09:33.732Z,68.92
2018-07-23T07:10:42.872Z,68.73
2018-07-23T07:11:52.022Z,69.5
2018-07-23T07:13:00.882Z,69.34
2018-07-23T07:14:09.748Z,69.73
2018-07-23T07:15:18.610Z,69.63
2018-07-23T07:16:27.473Z,70.59
2018-07-23T07:17:36.336Z,71.17
2018-07-23T07:18:45.196Z,71.94
2018-07-23T07:19:54.122Z,71.75
2018-07-23T07:21:02.932Z,72.23
2018-07-23T07:22:11.792Z,72.23
2018-07-23T07:23:20.806Z,71.75
2018-07-23T07:24:29.672Z,72.13
2018-07-23T07:25:38.815Z,72.61
2018-07-23T07:26:47.679Z,72.71
2018-07-23T07:27:56.547Z,73.28
2018-07-23T07:29:06.037Z,72.94
2018-07-23T07:30:14.900Z,73.19
2018-07-23T07:31:23.764Z,73.22
2018-07-23T07:32:32.628Z,72.94
2018-07-23T07:33:41.493Z,73.03
2018-07-23T07:34:50.396Z,72.94
2018-07-23T07:35:59.222Z,72.94
2018-07-23T07:37:08.089Z,73.99
2018-07-23T07:38:17.245Z,74.57
2018-07-23T07:39:26.438Z,74.19
2018-07-23T07:40:35.302Z,74.19
2018-07-23T07:41:44.168Z,74.09
2018-07-23T07:42:53.307Z,74.29
2018-07-23T07:44:02.257Z,73.99
2018-07-23T07:45:11.397Z,74.57
2018-07-23T07:46:20.344Z,74.67
2018-07-23T07:47:29.511Z,74.86
2018-07-23T07:48:38.378Z,75.19
2018-07-23T07:49:47.240Z,75.15
2018-07-23T07:50:56.383Z,75.82
2018-07-23T07:52:05.257Z,75.96
2018-07-23T07:53:14.121Z,76.44
2018-07-23T07:54:23.265Z,76.63
2018-07-23T07:55:32.405Z,76.44
2018-07-23T07:56:41.270Z,76.34
2018-07-23T07:57:50.408Z,76.63
2018-07-23T07:58:59.272Z,76.44
2018-07-23T08:00:08.139Z,77.11
2018-07-23T08:01:17.029Z,77.5
2018-07-23T08:02:25.894Z,78.17
2018-07-23T08:03:34.775Z,77.5
2018-07-23T08:04:43.649Z,79.61
2018-07-23T08:05:52.667Z,79.27
2018-07-23T08:07:01.543Z,79.85
2018-07-23T08:08:11.069Z,79.94
2018-07-23T08:09:19.933Z,80.14
2018-07-23T08:10:28.798Z,81.1
2018-07-23T08:11:37.813Z,80.23
2018-07-23T08:12:46.679Z,79.66
2018-07-23T08:13:55.642Z,81.1
2018-07-23T08:15:04.511Z,80.52
2018-07-23T08:16:13.662Z,81.68
2018-07-23T08:17:22.642Z,81.1
2018-07-23T08:18:31.788Z,81.39
2018-07-23T08:19:40.655Z,81.77
2018-07-23T08:20:49.794Z,81.48
2018-07-23T08:21:58.942Z,81.91
2018-07-23T08:23:07.806Z,81.14
2018-07-23T08:24:16.711Z,82.78
2018-07-23T08:25:25.588Z,82.59
2018-07-23T08:26:34.456Z,82.78
2018-07-23T08:27:43.358Z,82.97
2018-07-23T08:28:52.904Z,82.49
2018-07-23T08:30:02.094Z,82.87
2018-07-23T08:31:10.965Z,83.07
2018-07-23T08:32:19.888Z,82.49
2018-07-23T08:33:29.218Z,83.26
2018-07-23T08:34:38.085Z,83.74
2018-07-23T08:35:47.246Z,83.84
2018-07-23T08:36:56.720Z,83.64
2018-07-23T08:38:05.544Z,83.94
2018-07-23T08:39:14.410Z,84.03
2018-07-23T08:40:23.465Z,84.8
2018-07-23T08:41:32.352Z,84.75
2018-07-23T08:42:41.220Z,84.55
2018-07-23T08:43:50.084Z,85.33
2018-07-23T08:44:59.015Z,85.23
2018-07-23T08:46:09.096Z,84.36
2018-07-23T08:47:17.991Z,85.03
2018-07-23T08:48:26.875Z,85.03
2018-07-23T08:49:36.081Z,85.03
2018-07-23T08:50:44.944Z,84.89
2018-07-23T08:51:53.806Z,84.89
2018-07-23T08:53:02.723Z,85.23
2018-07-23T08:54:11.595Z,84.94
2018-07-23T08:55:20.534Z,85.37
2018-07-23T08:56:29.407Z,84.69
2018-07-23T08:57:38.265Z,85.66
2018-07-23T08:58:47.139Z,86.24
2018-07-23T08:59:56.004Z,85.75
2018-07-23T09:01:04.890Z,85.46
2018-07-23T09:02:13.766Z,85.17
2018-07-23T09:03:22.771Z,85.46
2018-07-23T09:04:31.672Z,85.17
2018-07-23T09:05:40.548Z,85.46
2018-07-23T09:06:49.746Z,86.04
2018-07-23T09:07:58.613Z,85.37
2018-07-23T09:09:07.478Z,85.94
2018-07-23T09:10:16.344Z,84.93
2018-07-23T09:11:25.212Z,85.31
2018-07-23T09:12:34.353Z,85.12
2018-07-23T09:13:43.218Z,86.38
2018-07-23T09:14:52.460Z,85.8
2018-07-23T09:16:01.325Z,85.41
2018-07-23T09:17:10.478Z,85.02
2018-07-23T09:18:19.333Z,85.8
2018-07-23T09:19:28.198Z,84.54
2018-07-23T09:20:37.341Z,85.6
2018-07-23T09:21:46.210Z,85.5
2018-07-23T09:22:55.351Z,85.8
2018-07-23T09:24:04.227Z,85.02
2018-07-23T09:25:13.089Z,84.25
2018-07-23T09:26:22.306Z,85.6
2018-07-23T09:27:31.172Z,85.22
2018-07-23T09:28:40.041Z,85.12
2018-07-23T09:29:49.186Z,84.25
2018-07-23T09:30:58.086Z,85.12
2018-07-23T09:32:07.353Z,84.54
2018-07-23T09:33:16.220Z,85.84
2018-07-23T09:34:25.368Z,84.78
2018-07-23T09:35:34.517Z,85.16
2018-07-23T09:36:43.385Z,85.84
2018-07-23T09:37:52.252Z,85.55
2018-07-23T09:39:01.120Z,83.72
2018-07-23T09:40:09.987Z,83.23
2018-07-23T09:41:19.140Z,84
2018-07-23T09:42:28.010Z,82.94
2018-07-23T09:43:36.874Z,83.85
2018-07-23T09:44:46.021Z,84.33
2018-07-23T09:45:55.297Z,84.91
2018-07-23T09:47:04.913Z,84.33
2018-07-23T09:48:14.419Z,83.85
2018-07-23T09:49:23.698Z,83.75
2018-07-23T09:50:32.917Z,83.66
2018-07-23T09:51:42.173Z,84.24
2018-07-23T09:52:51.410Z,82.21
2018-07-23T09:54:00.579Z,83.75
2018-07-23T09:55:09.880Z,83.18
2018-07-23T09:56:18.745Z,83.85
2018-07-23T09:57:27.610Z,83.61
2018-07-23T09:58:36.478Z,82.06
2018-07-23T09:59:45.376Z,82.83
2018-07-23T10:00:54.594Z,83.66
2018-07-23T10:02:03.462Z,83.47
2018-07-23T10:03:12.439Z,83.18
2018-07-23T10:04:22.093Z,82.98
2018-07-23T10:05:30.962Z,82.5
2018-07-23T10:06:40.105Z,82.54
2018-07-23T10:07:49.275Z,83.89
2018-07-23T10:08:58.142Z,83.12
2018-07-23T10:10:07.013Z,82.83
2018-07-23T10:11:15.896Z,83.22
2018-07-23T10:12:24.779Z,82.4
2018-07-23T10:13:33.646Z,82.79
2018-07-23T10:14:42.787Z,81.82
2018-07-23T10:15:51.653Z,82.64
2018-07-23T10:17:00.525Z,82.15
2018-07-23T10:18:09.555Z,81.29
2018-07-23T10:19:18.750Z,80.51
2018-07-23T10:20:27.619Z,81.96
2018-07-23T10:21:36.757Z,78.09
2018-07-23T10:22:45.623Z,75.58
2018-07-23T10:23:54.494Z,74.75
2018-07-23T10:25:03.370Z,73.2
2018-07-23T10:26:12.236Z,73.1
2018-07-23T10:27:21.117Z,73.04
2018-07-23T10:28:29.983Z,73.53
2018-07-23T10:29:39.201Z,73.14
2018-07-23T10:30:48.066Z,72.21
2018-07-23T10:31:56.932Z,73.75
2018-07-23T10:33:05.798Z,73.91
2018-07-23T10:34:14.664Z,73.43
2018-07-23T10:35:23.881Z,71.88
2018-07-23T10:36:33.044Z,69.69
2018-07-23T10:37:41.910Z,72.3
2018-07-23T10:38:50.780Z,70.47
2018-07-23T10:39:59.647Z,72.95
2018-07-23T10:41:08.813Z,70.92
2018-07-23T10:42:17.960Z,73.95
2018-07-23T10:43:26.831Z,72.36
2018-07-23T10:44:35.704Z,73.66
2018-07-23T10:45:44.846Z,75.17
2018-07-23T10:46:53.713Z,72.95
2018-07-23T10:48:02.580Z,74.53
2018-07-23T10:49:11.999Z,72.56
2018-07-23T10:50:20.866Z,70.82
2018-07-23T10:51:29.733Z,73.95
2018-07-23T10:52:38.754Z,72.02
2018-07-23T10:53:47.621Z,72.98
2018-07-23T10:54:56.763Z,71.14
2018-07-23T10:56:05.629Z,70.47
2018-07-23T10:57:14.580Z,71.08
2018-07-23T10:58:23.733Z,71.95
2018-07-23T10:59:32.801Z,73.02
2018-07-23T11:00:41.679Z,72.53
2018-07-23T11:01:50.547Z,72.44
2018-07-23T11:02:59.936Z,72.24
2018-07-23T11:04:09.528Z,71.86
2018-07-23T11:05:19.080Z,72.63
2018-07-23T11:06:27.939Z,70.7
2018-07-23T11:07:36.814Z,70.31
2018-07-23T11:08:45.736Z,70.95
2018-07-23T11:09:54.686Z,66.24
2018-07-23T11:11:03.554Z,66.34
2018-07-23T11:12:12.428Z,66.85
2018-07-23T11:13:21.345Z,65.2
2018-07-23T11:14:30.217Z,63.95
2018-07-23T11:15:39.737Z,63.49
2018-07-23T11:16:48.617Z,64.47
2018-07-23T11:17:57.484Z,63.59
2018-07-23T11:19:06.362Z,63.88
2018-07-23T11:20:15.520Z,66.89
2018-07-23T11:21:24.665Z,67.05
2018-07-23T11:22:33.530Z,68.21
2018-07-23T11:23:42.462Z,67.4
2018-07-23T11:24:51.391Z,68.4
2018-07-23T11:26:00.208Z,64.92
2018-07-23T11:27:09.510Z,63.3
2018-07-23T11:28:18.431Z,64.07
2018-07-23T11:29:27.364Z,62.16
2018-07-23T11:30:36.548Z,62.59
2018-07-23T11:31:45.692Z,61.81
2018-07-23T11:32:54.834Z,60.38
2018-07-23T11:34:03.698Z,60.28
2018-07-23T11:35:12.569Z,59.34
2018-07-23T11:36:21.446Z,59.34
2018-07-23T11:37:30.312Z,59.38
2018-07-23T11:38:39.539Z,59.18
2018-07-23T11:39:48.411Z,59.31
2018-07-23T11:40:57.276Z,58.46
2018-07-23T11:42:06.142Z,59.01
2018-07-23T11:43:15.010Z,60.38
2018-07-23T11:44:24.446Z,59.67
2018-07-23T11:45:33.304Z,58.62
2018-07-23T11:46:42.175Z,58.46
2018-07-23T11:47:51.046Z,57.59
2018-07-23T11:48:59.912Z,57.29
2018-07-23T11:50:08.779Z,56.81
2018-07-23T11:51:17.924Z,55.47
2018-07-23T11:52:27.072Z,54.6
2018-07-23T11:53:36.014Z,54.6
2018-07-23T11:54:44.807Z,54.33
2018-07-23T11:55:53.827Z,54.72
2018-07-23T11:57:02.757Z,54.23
2018-07-23T11:58:11.565Z,52.5
2018-07-23T11:59:20.433Z,52.67
2018-07-23T12:00:29.589Z,53.67
2018-07-23T12:01:39.035Z,52.7
2018-07-23T12:02:47.886Z,51.73
2018-07-23T12:03:56.753Z,49.71
2018-07-23T12:05:05.625Z,49.32
2018-07-23T12:06:14.504Z,48.34
2018-07-23T12:07:23.486Z,48.05
2018-07-23T12:08:32.361Z,47.85
2018-07-23T12:09:41.232Z,47.97
2018-07-23T12:10:50.109Z,46.8
2018-07-23T12:11:58.976Z,47.78
2018-07-23T12:13:07.998Z,48.07
2018-07-23T12:14:16.870Z,46.83
2018-07-23T12:15:25.744Z,49.15
2018-07-23T12:16:34.894Z,46.83
2018-07-23T12:17:43.770Z,44.87
2018-07-23T12:18:52.742Z,44.58
2018-07-23T12:20:01.616Z,45.19
2018-07-23T12:21:10.495Z,44.78
2018-07-23T12:22:19.648Z,44.48
2018-07-23T12:23:28.523Z,44.38
2018-07-23T12:24:37.753Z,44.12
2018-07-23T12:25:46.914Z,43.43
2018-07-23T12:26:55.788Z,43.26
2018-07-23T12:28:04.662Z,42.87
2018-07-23T12:29:13.808Z,43.26
2018-07-23T12:30:22.685Z,44.04
2018-07-23T12:31:31.565Z,44.24
2018-07-23T12:32:40.439Z,45.95
2018-07-23T12:33:49.317Z,44.58
2018-07-23T12:34:58.201Z,45
2018-07-23T12:36:07.070Z,44.92
2018-07-23T12:37:16.223Z,44.04
2018-07-23T12:38:25.129Z,44.24
2018-07-23T12:39:34.157Z,43.4
2018-07-23T12:40:43.259Z,42.91
2018-07-23T12:41:52.386Z,43.03
2018-07-23T12:43:01.422Z,42.27
2018-07-23T12:44:10.733Z,42.36
2018-07-23T12:45:20.032Z,42.17
2018-07-23T12:46:29.158Z,41.6
2018-07-23T12:47:38.449Z,41.58
2018-07-23T12:48:48.153Z,41.96
2018-07-23T12:49:57.031Z,41.56
2018-07-23T12:51:05.910Z,42.17
2018-07-23T12:52:15.061Z,41.41
2018-07-23T12:53:24.366Z,40.64
2018-07-23T12:54:33.522Z,40.35
2018-07-23T12:55:42.407Z,40.55
2018-07-23T12:56:51.846Z,41.11
2018-07-23T12:58:00.728Z,41.5
2018-07-23T12:59:09.707Z,41.49
2018-07-23T13:00:18.875Z,40.43
2018-07-23T13:01:27.766Z,40.72
2018-07-23T13:02:36.651Z,40.43
2018-07-23T13:03:45.821Z,40.16
2018-07-23T13:04:54.703Z,40.92
2018-07-23T13:06:03.873Z,40.94
2018-07-23T13:07:12.795Z,40.06
2018-07-23T13:08:21.675Z,40.17
2018-07-23T13:10:03.163Z,41.05
2018-07-23T13:11:14.015Z,40.74
2018-07-23T13:12:23.403Z,40.76
2018-07-23T13:13:32.287Z,41.55
2018-07-23T13:14:41.169Z,41.17
2018-07-23T13:15:50.100Z,40.37
2018-07-23T13:16:58.980Z,40
2018-07-23T13:18:07.866Z,40.86
2018-07-23T13:19:16.807Z,42.25
2018-07-23T13:20:26.051Z,41.17
2018-07-23T13:21:34.933Z,41.27
2018-07-23T13:22:43.825Z,41
2018-07-23T13:23:52.989Z,40
2018-07-23T13:25:02.144Z,39.53
2018-07-23T13:26:11.030Z,39.9
2018-07-23T13:27:19.932Z,40
2018-07-23T13:28:28.818Z,40.8
2018-07-23T13:29:37.974Z,41.05
2018-07-23T13:30:46.855Z,40.45
2018-07-23T13:31:55.738Z,41.05
2018-07-23T13:33:04.620Z,40.86
2018-07-23T13:34:13.501Z,40.98
2018-07-23T13:35:22.666Z,40.47
2018-07-23T13:36:31.552Z,40.78
2018-07-23T13:37:40.433Z,39.8
2018-07-23T13:38:49.601Z,40.23
2018-07-23T13:39:58.481Z,39.74
2018-07-23T13:41:07.368Z,40.06
2018-07-23T13:42:16.522Z,39.94
2018-07-23T13:43:25.411Z,39.76
2018-07-23T13:44:34.284Z,40.21
2018-07-23T13:45:43.541Z,39.94
2018-07-23T13:46:52.425Z,39.94
2018-07-23T13:48:01.308Z,39.37
2018-07-23T13:49:10.191Z,39
2018-07-23T13:50:19.626Z,38.6
2018-07-23T13:51:28.614Z,38.9
2018-07-23T13:52:37.499Z,39
2018-07-23T13:53:46.381Z,38.5
2018-07-23T13:54:55.546Z,38.88
2018-07-23T13:56:04.700Z,38.78
2018-07-23T13:57:13.862Z,39
2018-07-23T13:58:22.740Z,38.88
2018-07-23T13:59:31.624Z,38.4
2018-07-23T14:00:40.507Z,38.4
2018-07-23T14:01:49.389Z,38.48
2018-07-23T14:02:58.695Z,38.85
2018-07-23T14:04:07.580Z,38.19
2018-07-23T14:05:16.461Z,39
2018-07-23T14:06:25.365Z,38.98
2018-07-23T14:07:34.231Z,38.88
2018-07-23T14:08:43.464Z,39.37
2018-07-23T14:09:52.347Z,39.25
2018-07-23T14:11:01.507Z,38.98
2018-07-23T14:12:10.676Z,38.72
2018-07-23T14:13:19.558Z,39.01
2018-07-23T14:14:28.802Z,39.01
2018-07-23T14:15:37.959Z,38.84
2018-07-23T14:16:46.846Z,39.42
2018-07-23T14:17:55.743Z,40.06
2018-07-23T14:19:04.626Z,40
2018-07-23T14:20:13.510Z,38.62
2018-07-23T14:21:22.390Z,38.82
2018-07-23T14:22:31.282Z,38.01
2018-07-23T14:23:40.167Z,38.44
2018-07-23T14:24:49.326Z,39.11
2018-07-23T14:25:58.217Z,40.19
2018-07-23T14:27:07.097Z,40.19
2018-07-23T14:28:15.982Z,39.32
2018-07-23T14:29:25.443Z,39.34
2018-07-23T14:30:34.341Z,39.95
2018-07-23T14:31:43.782Z,38.46
2018-07-23T14:32:52.667Z,39.62
2018-07-23T14:34:01.554Z,39.94
2018-07-23T14:35:10.436Z,38.66
2018-07-23T14:36:19.601Z,40.92
2018-07-23T14:37:28.481Z,38.85
2018-07-23T14:38:37.721Z,39.03
2018-07-23T14:39:46.893Z,38.44
2018-07-23T14:40:55.786Z,37.97
2018-07-23T14:42:04.948Z,37.69
2018-07-23T14:43:13.834Z,38.34
2018-07-23T14:44:22.718Z,37.36
2018-07-23T14:45:31.601Z,37.67
2018-07-23T14:46:40.502Z,38.07
2018-07-23T14:47:49.388Z,38.56
2018-07-23T14:48:58.271Z,38.76
2018-07-23T14:50:07.154Z,39.05
2018-07-23T14:51:16.388Z,39.05
2018-07-23T14:52:25.274Z,38.85
2018-07-23T14:53:34.157Z,38.28